Time;durP1;ratioP1;P1;durP2;ratioP2;P2;SDS_P1;SDS_P2;PMS_P1;PMS_P2;Temp;Humidity;BMP_temperature;BMP_pressure;BME280_temperature;BME280_humidity;BME280_pressure;Samples;Min_cycle;Max_cycle;Signal;HPM_P1;HPM_P2
2022/11/26 00:00:49;;;;;;;98.18;21.25;;;;;;;-148.24;100.00;61531.34;4965902;28;20495;-52
2022/11/26 00:03:18;;;;;;;86.78;20.58;;;;;;;-148.24;100.00;61531.34;4965953;28;20023;-54
2022/11/26 00:05:46;;;;;;;64.38;18.10;;;;;;;-148.24;100.00;61531.34;4964471;28;20535;-53
2022/11/26 00:08:20;;;;;;;64.43;18.50;;;;;;;-148.24;100.00;61531.34;4965993;28;20034;-55
2022/11/26 00:10:49;;;;;;;72.13;18.95;;;;;;;-148.24;100.00;61531.34;4966246;28;20270;-52
2022/11/26 00:13:16;;;;;;;71.93;18.42;;;;;;;-148.24;100.00;61531.34;4965069;28;20027;-53
2022/11/26 00:15:42;;;;;;;90.68;19.30;;;;;;;-148.24;100.00;61531.34;4964725;28;20030;-55
2022/11/26 00:18:07;;;;;;;90.60;20.02;;;;;;;-148.24;100.00;61531.34;4967772;28;20042;-52
2022/11/26 00:20:32;;;;;;;106.65;19.58;;;;;;;-148.24;100.00;61531.34;4964378;28;20049;-53
2022/11/26 00:23:03;;;;;;;82.03;17.83;;;;;;;-148.24;100.00;61531.34;4964739;28;20488;-53
2022/11/26 00:25:42;;;;;;;65.22;15.55;;;;;;;-148.24;100.00;61531.34;4964597;28;20468;-53
2022/11/26 00:28:25;;;;;;;75.18;16.00;;;;;;;-148.24;100.00;61531.34;4967304;28;20141;-51
2022/11/26 00:30:51;;;;;;;85.30;17.65;;;;;;;-148.24;100.00;61531.34;4965314;28;20504;-51
2022/11/26 00:33:17;;;;;;;84.47;19.30;;;;;;;-148.24;100.00;61531.34;4964551;28;20105;-51
2022/11/26 00:35:45;;;;;;;98.63;20.58;;;;;;;-148.24;100.00;61531.34;4966508;28;20153;-53
2022/11/26 00:38:15;;;;;;;74.10;18.42;;;;;;;-148.24;100.00;61531.34;4967567;28;20031;-53
2022/11/26 00:40:41;;;;;;;78.22;18.67;;;;;;;-148.24;100.00;61531.34;4964040;28;20215;-52
2022/11/26 00:43:10;;;;;;;90.63;19.85;;;;;;;-148.24;100.00;61531.34;4966362;28;20162;-51
2022/11/26 00:45:35;;;;;;;70.72;17.50;;;;;;;-148.24;100.00;61531.34;4965548;28;20039;-55
2022/11/26 00:48:01;;;;;;;79.03;18.13;;;;;;;-148.24;100.00;61531.34;4965224;28;20085;-52
2022/11/26 00:50:31;;;;;;;66.53;17.92;;;;;;;-148.24;100.00;61531.34;4965242;28;20096;-53
2022/11/26 00:52:56;;;;;;;73.43;18.35;;;;;;;-148.24;100.00;61531.34;4965567;28;20026;-53
2022/11/26 00:55:35;;;;;;;86.03;19.10;;;;;;;-148.24;100.00;61531.34;4965433;28;20031;-53
2022/11/26 00:58:01;;;;;;;93.63;20.10;;;;;;;-148.24;100.00;61531.34;4968325;28;20030;-52
2022/11/26 01:00:30;;;;;;;75.57;18.15;;;;;;;-148.24;100.00;61531.34;4965916;28;20046;-53
2022/11/26 01:02:56;;;;;;;90.10;19.45;;;;;;;-148.24;100.00;61531.34;4965279;28;20038;-54
2022/11/26 01:05:25;;;;;;;73.32;16.30;;;;;;;-148.24;100.00;61531.34;4966545;28;20029;-53
2022/11/26 01:07:51;;;;;;;103.80;20.48;;;;;;;-148.24;100.00;61531.34;4964607;28;20019;-52
2022/11/26 01:10:26;;;;;;;123.68;21.65;;;;;;;-148.24;100.00;61531.34;4967456;28;20070;-56
2022/11/26 01:12:52;;;;;;;77.68;18.75;;;;;;;-148.24;100.00;61531.34;4964654;28;20046;-52
2022/11/26 01:15:20;;;;;;;97.05;19.85;;;;;;;-148.24;100.00;61531.34;4964257;28;20037;-55
2022/11/26 01:17:46;;;;;;;77.13;18.75;;;;;;;-148.24;100.00;61531.34;4967092;28;20050;-54
2022/11/26 01:20:28;;;;;;;102.55;20.83;;;;;;;-148.24;100.00;61531.34;4964366;28;20118;-52
2022/11/26 01:22:55;;;;;;;81.40;18.13;;;;;;;-148.24;100.00;61531.34;4965476;28;20085;-53
2022/11/26 01:25:22;;;;;;;78.32;19.98;;;;;;;-148.24;100.00;61531.34;4967871;28;20030;-52
2022/11/26 01:27:48;;;;;;;82.93;20.40;;;;;;;-148.24;100.00;61531.34;4965290;28;20121;-53
2022/11/26 01:30:24;;;;;;;92.93;19.10;;;;;;;-148.24;100.00;61531.34;4963040;28;20104;-53
2022/11/26 01:32:49;;;;;;;84.85;19.27;;;;;;;-148.24;100.00;61531.34;4964621;28;20035;-55
2022/11/26 01:35:17;;;;;;;89.28;19.00;;;;;;;-148.24;100.00;61531.34;4964009;28;20026;-52
2022/11/26 01:37:42;;;;;;;91.95;20.73;;;;;;;-148.24;100.00;61531.34;4964149;28;20804;-54
2022/11/26 01:40:30;;;;;;;82.55;18.05;;;;;;;-148.24;100.00;61531.34;4962073;28;20026;-53
2022/11/26 01:42:59;;;;;;;80.32;18.33;;;;;;;-148.24;100.00;61531.34;4965243;28;20023;-53
2022/11/26 01:45:24;;;;;;;84.97;19.10;;;;;;;-148.24;100.00;61531.34;4963934;28;20042;-52
2022/11/26 01:47:49;;;;;;;73.63;17.80;;;;;;;-148.24;100.00;61531.34;4966880;28;20093;-53
2022/11/26 01:50:30;;;;;;;83.20;18.85;;;;;;;-148.24;100.00;61531.34;4964053;28;20033;-53
2022/11/26 01:52:59;;;;;;;89.53;19.60;;;;;;;-148.24;100.00;61531.34;4963846;28;20026;-53
2022/11/26 01:55:34;;;;;;;84.07;18.95;;;;;;;-148.24;100.00;61531.34;4963612;28;20594;-52
2022/11/26 01:58:00;;;;;;;99.80;19.15;;;;;;;-148.24;100.00;61531.34;4966531;28;20089;-53
2022/11/26 02:00:25;;;;;;;84.57;18.27;;;;;;;-148.24;100.00;61531.34;4969498;28;20042;-53
2022/11/26 02:02:50;;;;;;;88.75;19.13;;;;;;;-148.24;100.00;61531.34;4968841;28;20045;-53
2022/11/26 02:05:22;;;;;;;80.53;17.92;;;;;;;-148.24;100.00;61531.34;4971273;28;20628;-52
2022/11/26 02:07:49;;;;;;;73.82;17.48;;;;;;;-148.24;100.00;61531.34;4971409;28;20081;-53
2022/11/26 02:10:14;;;;;;;79.47;17.98;;;;;;;-148.24;100.00;61531.34;4970019;28;20632;-53
2022/11/26 02:12:41;;;;;;;75.50;18.52;;;;;;;-148.24;100.00;61531.34;4972101;28;20030;-52
2022/11/26 02:15:08;;;;;;;62.83;16.23;;;;;;;-148.24;100.00;61531.34;4971134;28;20564;-54
2022/11/26 02:17:49;;;;;;;66.53;17.05;;;;;;;-148.24;100.00;61531.34;4973441;28;20047;-53
2022/11/26 02:20:36;;;;;;;61.30;16.90;;;;;;;-148.24;100.00;61531.34;4969539;28;20076;-55
2022/11/26 02:23:26;;;;;;;65.93;17.23;;;;;;;-148.24;100.00;61531.34;4970394;28;20035;-53
2022/11/26 02:26:20;;;;;;;64.72;15.30;;;;;;;-148.24;100.00;61531.34;4969000;28;20070;-53
2022/11/26 02:28:57;;;;;;;54.35;13.18;;;;;;;-148.24;100.00;61531.34;4971099;28;20031;-53
2022/11/26 02:31:39;;;;;;;67.35;16.27;;;;;;;-148.24;100.00;61531.34;4970065;28;20057;-55
2022/11/26 02:34:28;;;;;;;69.97;16.60;;;;;;;-148.24;100.00;61531.34;4971816;28;20416;-53
2022/11/26 02:37:01;;;;;;;58.55;15.63;;;;;;;-148.24;100.00;61531.34;4971133;28;20771;-54
2022/11/26 02:39:28;;;;;;;67.32;16.30;;;;;;;-148.24;100.00;61531.34;4967709;28;20546;-53
2022/11/26 02:41:57;;;;;;;68.90;16.05;;;;;;;-148.24;100.00;61531.34;4967312;28;20101;-52
2022/11/26 02:44:27;;;;;;;52.58;14.93;;;;;;;-148.24;100.00;61531.34;4969409;28;20054;-53
2022/11/26 02:47:00;;;;;;;71.13;15.18;;;;;;;-148.24;100.00;61531.34;4971145;28;20043;-53
2022/11/26 02:49:27;;;;;;;70.50;16.33;;;;;;;-148.24;100.00;61531.34;4970361;28;20026;-53
2022/11/26 02:51:57;;;;;;;61.88;14.80;;;;;;;-148.24;100.00;61531.34;4970694;28;20043;-52
2022/11/26 02:54:24;;;;;;;59.90;14.60;;;;;;;-148.24;100.00;61531.34;4969631;28;20023;-56
2022/11/26 02:56:51;;;;;;;57.22;13.82;;;;;;;-148.24;100.00;61531.34;4969257;28;20500;-54
2022/11/26 02:59:16;;;;;;;70.38;16.58;;;;;;;-148.24;100.00;61531.34;4971530;28;20565;-55
2022/11/26 03:01:58;;;;;;;54.50;13.45;;;;;;;-148.24;100.00;61531.34;4968338;28;20651;-54
2022/11/26 03:04:29;;;;;;;66.28;14.77;;;;;;;-148.24;100.00;61531.34;4971590;28;20030;-53
2022/11/26 03:06:57;;;;;;;61.47;15.98;;;;;;;-148.24;100.00;61531.34;4970230;28;20042;-56
2022/11/26 03:09:22;;;;;;;62.95;16.42;;;;;;;-148.24;100.00;61531.34;4969059;28;20125;-53
2022/11/26 03:11:48;;;;;;;67.72;15.30;;;;;;;-148.24;100.00;61531.34;4966762;28;20041;-52
2022/11/26 03:14:14;;;;;;;70.38;15.35;;;;;;;-148.24;100.00;61531.34;4966610;28;20128;-53
2022/11/26 03:16:39;;;;;;;66.88;16.10;;;;;;;-148.24;100.00;61531.34;4964128;28;20058;-54
2022/11/26 03:19:05;;;;;;;43.67;11.75;;;;;;;-148.24;100.00;61531.34;4967374;28;20022;-52
2022/11/26 03:21:32;;;;;;;66.60;15.05;;;;;;;-148.24;100.00;61531.34;4963743;28;20031;-53
2022/11/26 03:23:57;;;;;;;59.00;14.18;;;;;;;-148.24;100.00;61531.34;4967304;28;20464;-53
2022/11/26 03:26:22;;;;;;;66.93;15.73;;;;;;;-148.24;100.00;61531.34;4966189;28;20504;-54
2022/11/26 03:28:48;;;;;;;80.88;16.38;;;;;;;-148.24;100.00;61531.34;4967435;28;20432;-53
2022/11/26 03:31:13;;;;;;;57.17;14.95;;;;;;;-148.24;100.00;61531.34;4967487;28;20042;-55
2022/11/26 03:33:38;;;;;;;60.50;15.48;;;;;;;-148.24;100.00;61531.34;4967319;28;20022;-53
2022/11/26 03:36:04;;;;;;;80.30;16.17;;;;;;;-148.24;100.00;61531.34;4967571;28;20106;-52
2022/11/26 03:38:29;;;;;;;78.75;17.73;;;;;;;-148.24;100.00;61531.34;4968040;28;20460;-53
2022/11/26 03:41:00;;;;;;;71.63;15.77;;;;;;;-148.24;100.00;61531.34;4964885;28;20116;-54
2022/11/26 03:43:26;;;;;;;74.13;16.55;;;;;;;-148.24;100.00;61531.34;4968575;28;20728;-53
2022/11/26 03:45:52;;;;;;;68.13;16.58;;;;;;;-148.24;100.00;61531.34;4967893;28;20547;-53
2022/11/26 03:48:17;;;;;;;69.20;16.52;;;;;;;-148.24;100.00;61531.34;4954786;28;20145;-53
2022/11/26 03:50:42;;;;;;;58.65;15.02;;;;;;;-148.24;100.00;61531.34;4965570;28;20041;-52
2022/11/26 03:53:08;;;;;;;71.53;17.05;;;;;;;-148.24;100.00;61531.34;4967412;28;20058;-54
2022/11/26 03:55:33;;;;;;;75.13;16.52;;;;;;;-148.24;100.00;61531.34;4966288;28;20153;-55
2022/11/26 03:57:59;;;;;;;73.60;17.30;;;;;;;-148.24;100.00;61531.34;4968109;28;20117;-55
2022/11/26 04:00:25;;;;;;;66.38;15.20;;;;;;;-148.24;100.00;61531.34;4965773;28;20065;-52
2022/11/26 04:02:50;;;;;;;56.47;15.40;;;;;;;-148.24;100.00;61531.34;4966958;28;20092;-54
2022/11/26 04:05:15;;;;;;;72.35;15.02;;;;;;;-148.24;100.00;61531.34;4967940;28;20515;-53
2022/11/26 04:07:41;;;;;;;60.20;14.73;;;;;;;-148.24;100.00;61531.34;4968152;28;20019;-53
2022/11/26 04:10:07;;;;;;;63.75;16.00;;;;;;;-148.24;100.00;61531.34;4966782;28;20040;-53
2022/11/26 04:12:33;;;;;;;54.88;14.38;;;;;;;-148.24;100.00;61531.34;4965483;28;20026;-55
2022/11/26 04:14:58;;;;;;;58.80;13.98;;;;;;;-148.24;100.00;61531.34;4962858;28;20724;-53
2022/11/26 04:17:23;;;;;;;66.22;14.75;;;;;;;-148.24;100.00;61531.34;4965523;28;20034;-53
2022/11/26 04:19:49;;;;;;;61.28;15.25;;;;;;;-148.24;100.00;61531.34;4966818;28;20139;-55
2022/11/26 04:22:15;;;;;;;66.72;14.30;;;;;;;-148.24;100.00;61531.34;4963386;28;20042;-54
2022/11/26 04:24:40;;;;;;;69.15;15.27;;;;;;;-148.24;100.00;61531.34;4966933;28;20075;-53
2022/11/26 04:27:06;;;;;;;56.20;15.48;;;;;;;-148.24;100.00;61531.34;4966899;28;20125;-54
2022/11/26 04:29:31;;;;;;;67.68;16.30;;;;;;;-148.24;100.00;61531.34;4966961;28;20552;-54
2022/11/26 04:31:57;;;;;;;62.63;15.82;;;;;;;-148.24;100.00;61531.34;4964163;28;20035;-53
2022/11/26 04:34:22;;;;;;;64.95;15.23;;;;;;;-148.24;100.00;61531.34;4968533;28;20034;-52
2022/11/26 04:36:47;;;;;;;64.47;15.38;;;;;;;-148.24;100.00;61531.34;4966297;28;20035;-53
2022/11/26 04:39:13;;;;;;;71.00;15.10;;;;;;;-148.24;100.00;61531.34;4967469;28;20023;-53
2022/11/26 04:41:38;;;;;;;65.53;15.90;;;;;;;-148.24;100.00;61531.34;4967797;28;20153;-54
2022/11/26 04:44:04;;;;;;;66.40;15.32;;;;;;;-148.24;100.00;61531.34;4967571;28;20373;-53
2022/11/26 04:46:29;;;;;;;69.75;15.45;;;;;;;-148.24;100.00;61531.34;4965638;28;20339;-54
2022/11/26 04:48:54;;;;;;;68.50;16.08;;;;;;;-148.24;100.00;61531.34;4966154;28;20499;-53
2022/11/26 04:51:20;;;;;;;66.10;14.48;;;;;;;-148.24;100.00;61531.34;4964861;28;20050;-53
2022/11/26 04:53:45;;;;;;;73.68;15.77;;;;;;;-148.24;100.00;61531.34;4966221;28;20085;-57
2022/11/26 04:56:11;;;;;;;65.10;14.82;;;;;;;-148.24;100.00;61531.34;4965026;28;20125;-54
2022/11/26 04:58:36;;;;;;;64.85;15.15;;;;;;;-148.24;100.00;61531.34;4966423;28;20023;-55
2022/11/26 05:01:02;;;;;;;65.35;15.35;;;;;;;-148.24;100.00;61531.34;4963751;28;20038;-54
2022/11/26 05:03:27;;;;;;;56.70;13.65;;;;;;;-148.24;100.00;61531.34;4966569;28;20117;-53
2022/11/26 05:05:52;;;;;;;68.05;14.50;;;;;;;-148.24;100.00;61531.34;4966289;28;20062;-54
2022/11/26 05:08:18;;;;;;;47.42;12.45;;;;;;;-148.24;100.00;61531.34;4965219;28;20102;-56
2022/11/26 05:10:43;;;;;;;56.33;13.95;;;;;;;-148.24;100.00;61531.34;4966710;28;20608;-56
2022/11/26 05:13:09;;;;;;;77.05;20.27;;;;;;;-148.24;100.00;61531.34;4965153;28;20469;-55
2022/11/26 05:15:34;;;;;;;59.55;17.05;;;;;;;-148.24;100.00;61531.34;4963755;28;20393;-53
2022/11/26 05:18:00;;;;;;;70.85;16.10;;;;;;;-148.24;100.00;61531.34;4964677;28;20433;-53
2022/11/26 05:20:25;;;;;;;59.00;14.80;;;;;;;-148.24;100.00;61531.34;4966037;28;20034;-53
2022/11/26 05:22:50;;;;;;;58.72;14.30;;;;;;;-148.24;100.00;61531.34;4965543;28;20029;-53
2022/11/26 05:25:16;;;;;;;54.20;12.50;;;;;;;-148.24;100.00;61531.34;4965094;28;20054;-52
2022/11/26 05:27:41;;;;;;;62.20;13.13;;;;;;;-148.24;100.00;61531.34;4965316;28;20083;-53
2022/11/26 05:30:07;;;;;;;64.30;12.98;;;;;;;-148.24;100.00;61531.34;4963331;28;20411;-53
2022/11/26 05:32:32;;;;;;;55.00;13.10;;;;;;;-148.24;100.00;61531.34;4966378;28;20027;-55
2022/11/26 05:34:58;;;;;;;62.92;14.38;;;;;;;-148.24;100.00;61531.34;4966563;28;20196;-53
2022/11/26 05:37:23;;;;;;;59.17;13.10;;;;;;;-148.24;100.00;61531.34;4964468;28;20782;-53
2022/11/26 05:39:48;;;;;;;56.83;14.35;;;;;;;-148.24;100.00;61531.34;4963730;28;20042;-55
2022/11/26 05:42:14;;;;;;;59.05;14.57;;;;;;;-148.24;100.00;61531.34;4963836;28;20055;-54
2022/11/26 05:44:39;;;;;;;69.63;14.57;;;;;;;-148.24;100.00;61531.34;4962942;28;20034;-53
2022/11/26 05:47:05;;;;;;;63.28;13.52;;;;;;;-148.24;100.00;61531.34;4963418;28;20531;-55
2022/11/26 05:49:30;;;;;;;66.97;14.10;;;;;;;-148.24;100.00;61531.34;4964498;28;20023;-56
2022/11/26 05:51:55;;;;;;;56.78;12.40;;;;;;;-148.24;100.00;61531.34;4963440;28;20039;-53
2022/11/26 05:54:21;;;;;;;60.90;12.95;;;;;;;-148.24;100.00;61531.34;4963857;28;21037;-56
2022/11/26 05:56:46;;;;;;;58.45;13.77;;;;;;;-148.24;100.00;61531.34;4964878;28;20137;-55
2022/11/26 05:59:11;;;;;;;61.60;13.88;;;;;;;-148.24;100.00;61531.34;4966185;28;20030;-53
2022/11/26 06:01:37;;;;;;;80.00;16.88;;;;;;;-148.24;100.00;61531.34;4963699;28;20508;-56
2022/11/26 06:04:02;;;;;;;72.60;15.55;;;;;;;-148.24;100.00;61531.34;4963843;28;20483;-55
2022/11/26 06:06:29;;;;;;;63.03;14.02;;;;;;;-148.24;100.00;61531.34;4963543;28;20038;-54
2022/11/26 06:08:54;;;;;;;60.65;13.57;;;;;;;-148.24;100.00;61531.34;4965575;28;20121;-53
2022/11/26 06:11:19;;;;;;;53.20;12.93;;;;;;;-148.24;100.00;61531.34;4964860;28;20034;-55
2022/11/26 06:13:45;;;;;;;72.90;14.02;;;;;;;-148.24;100.00;61531.34;4964549;28;20073;-52
2022/11/26 06:16:10;;;;;;;62.20;13.90;;;;;;;-148.24;100.00;61531.34;4962835;28;20555;-53
2022/11/26 06:18:36;;;;;;;59.65;14.63;;;;;;;-148.24;100.00;61531.34;4964298;28;20039;-53
2022/11/26 06:21:04;;;;;;;69.38;14.68;;;;;;;-148.24;100.00;61531.34;4963547;28;20039;-53
2022/11/26 06:23:31;;;;;;;57.10;13.05;;;;;;;-148.24;100.00;61531.34;4965181;28;20070;-57
2022/11/26 06:25:57;;;;;;;62.13;13.70;;;;;;;-148.24;100.00;61531.34;4964566;28;20597;-53
2022/11/26 06:28:22;;;;;;;60.80;13.38;;;;;;;-148.24;100.00;61531.34;4964989;28;20034;-53
2022/11/26 06:30:47;;;;;;;60.40;14.50;;;;;;;-148.24;100.00;61531.34;4962515;28;20483;-53
2022/11/26 06:33:13;;;;;;;59.88;13.27;;;;;;;-148.24;100.00;61531.34;4965460;28;20409;-53
2022/11/26 06:35:38;;;;;;;61.97;12.50;;;;;;;-148.24;100.00;61531.34;4962443;28;20035;-54
2022/11/26 06:38:04;;;;;;;71.38;13.98;;;;;;;-148.24;100.00;61531.34;4967365;28;20026;-53
2022/11/26 06:40:29;;;;;;;66.63;13.00;;;;;;;-148.24;100.00;61531.34;4966675;28;20113;-52
2022/11/26 06:42:54;;;;;;;54.85;12.45;;;;;;;-148.24;100.00;61531.34;4961674;28;20030;-53
2022/11/26 06:45:21;;;;;;;62.90;13.15;;;;;;;-148.24;100.00;61531.34;4966337;28;20057;-54
2022/11/26 06:47:48;;;;;;;63.72;13.38;;;;;;;-148.24;100.00;61531.34;4969988;28;20046;-53
2022/11/26 06:50:15;;;;;;;64.13;13.35;;;;;;;-148.24;100.00;61531.34;4964348;28;20788;-55
2022/11/26 06:52:40;;;;;;;54.75;12.82;;;;;;;-148.24;100.00;61531.34;4969270;28;20550;-53
2022/11/26 06:55:06;;;;;;;72.18;13.90;;;;;;;-148.24;100.00;61531.34;4967543;28;20117;-55
2022/11/26 06:57:31;;;;;;;62.13;13.00;;;;;;;-148.24;100.00;61531.34;4967447;28;20039;-53
2022/11/26 06:59:57;;;;;;;54.08;13.05;;;;;;;-148.24;100.00;61531.34;4969637;28;20035;-55
2022/11/26 07:02:22;;;;;;;68.10;13.50;;;;;;;-148.24;100.00;61531.34;4968440;28;20038;-54
2022/11/26 07:04:47;;;;;;;57.80;13.27;;;;;;;-148.24;100.00;61531.34;4966002;28;20556;-53
2022/11/26 07:07:13;;;;;;;69.25;14.20;;;;;;;-148.24;100.00;61531.34;4965905;28;20039;-53
2022/11/26 07:09:38;;;;;;;71.03;12.75;;;;;;;-148.24;100.00;61531.34;4967391;28;20034;-53
2022/11/26 07:12:04;;;;;;;54.45;12.23;;;;;;;-148.24;100.00;61531.34;4966208;28;20035;-53
2022/11/26 07:14:29;;;;;;;56.90;12.38;;;;;;;-148.24;100.00;61531.34;4968585;28;20053;-54
2022/11/26 07:16:55;;;;;;;55.58;12.52;;;;;;;-148.24;100.00;61531.34;4970099;28;20066;-56
2022/11/26 07:19:20;;;;;;;53.47;12.70;;;;;;;-148.24;100.00;61531.34;4969402;28;20043;-55
2022/11/26 07:21:45;;;;;;;45.30;11.38;;;;;;;-148.24;100.00;61531.34;4967918;28;20035;-55
2022/11/26 07:24:11;;;;;;;60.58;12.93;;;;;;;-148.24;100.00;61531.34;4966480;28;20130;-54
2022/11/26 07:26:36;;;;;;;59.15;11.95;;;;;;;-148.24;100.00;61531.34;4965926;28;20083;-53
2022/11/26 07:29:02;;;;;;;53.60;12.20;;;;;;;-148.24;100.00;61531.34;4966784;28;20150;-52
2022/11/26 07:31:27;;;;;;;48.05;12.13;;;;;;;-148.24;100.00;61531.34;4966944;28;20034;-52
2022/11/26 07:33:53;;;;;;;55.35;13.07;;;;;;;-148.24;100.00;61531.34;4967256;28;20030;-52
2022/11/26 07:36:21;;;;;;;56.13;12.13;;;;;;;-148.24;100.00;61531.34;4964588;28;20054;-52
2022/11/26 07:38:46;;;;;;;64.15;13.18;;;;;;;-148.24;100.00;61531.34;4966829;28;20034;-54
2022/11/26 07:41:16;;;;;;;64.85;14.00;;;;;;;-148.24;100.00;61531.34;4965168;28;20851;-56
2022/11/26 07:43:42;;;;;;;67.60;13.23;;;;;;;-148.24;100.00;61531.34;4966348;28;20042;-51
2022/11/26 07:46:10;;;;;;;57.92;13.40;;;;;;;-148.24;100.00;61531.34;4967459;28;20459;-52
2022/11/26 07:48:37;;;;;;;53.53;12.80;;;;;;;-148.24;100.00;61531.34;4967093;28;20553;-52
2022/11/26 07:51:02;;;;;;;52.10;12.25;;;;;;;-148.24;100.00;61531.34;4965436;28;20049;-54
2022/11/26 07:53:33;;;;;;;56.17;13.05;;;;;;;-148.24;100.00;61531.34;4965726;28;20035;-52
2022/11/26 07:55:59;;;;;;;71.00;14.65;;;;;;;-148.24;100.00;61531.34;4963134;28;20074;-54
2022/11/26 07:58:25;;;;;;;48.72;12.48;;;;;;;-148.24;100.00;61531.34;4963853;28;20117;-55
2022/11/26 08:00:51;;;;;;;45.17;10.13;;;;;;;-148.24;100.00;61531.34;4962393;28;20473;-51
2022/11/26 08:03:16;;;;;;;46.95;11.60;;;;;;;-148.24;100.00;61531.34;4957173;28;20057;-55
2022/11/26 08:05:43;;;;;;;48.42;11.30;;;;;;;-148.24;100.00;61531.34;4967470;28;20448;-53
2022/11/26 08:08:09;;;;;;;38.30;10.10;;;;;;;-148.24;100.00;61531.34;4967262;28;20113;-52
2022/11/26 08:10:35;;;;;;;47.03;10.70;;;;;;;-148.24;100.00;61531.34;4965844;28;20663;-55
2022/11/26 08:13:01;;;;;;;47.92;12.30;;;;;;;-148.24;100.00;61531.34;4966888;28;20029;-53
2022/11/26 08:15:26;;;;;;;46.25;12.35;;;;;;;-148.24;100.00;61531.34;4967170;28;20038;-53
2022/11/26 08:17:55;;;;;;;45.38;12.25;;;;;;;-148.24;100.00;61531.34;4968931;28;20034;-55
2022/11/26 08:20:21;;;;;;;50.95;13.70;;;;;;;-148.24;100.00;61531.34;4968695;28;20030;-54
2022/11/26 08:22:46;;;;;;;52.65;13.20;;;;;;;-148.24;100.00;61531.34;4967145;28;20026;-53
2022/11/26 08:25:12;;;;;;;47.22;11.55;;;;;;;-148.24;100.00;61531.34;4967688;28;20500;-53
2022/11/26 08:27:37;;;;;;;50.53;12.98;;;;;;;-148.24;100.00;61531.34;4966331;28;20092;-54
2022/11/26 08:30:04;;;;;;;44.20;10.88;;;;;;;-148.24;100.00;61531.34;4966424;28;20129;-54
2022/11/26 08:32:29;;;;;;;45.85;10.88;;;;;;;-148.24;100.00;61531.34;4966807;28;20046;-53
2022/11/26 08:34:55;;;;;;;47.40;12.05;;;;;;;-148.24;100.00;61531.34;4968933;28;20027;-52
2022/11/26 08:37:20;;;;;;;52.45;12.10;;;;;;;-148.24;100.00;61531.34;4966980;28;20085;-53
2022/11/26 08:39:45;;;;;;;52.08;12.07;;;;;;;-148.24;100.00;61531.34;4967884;28;20026;-52
2022/11/26 08:42:11;;;;;;;54.50;12.90;;;;;;;-148.24;100.00;61531.34;4970051;28;20069;-53
2022/11/26 08:44:36;;;;;;;39.22;10.18;;;;;;;-148.24;100.00;61531.34;4966580;28;20058;-56
2022/11/26 08:47:01;;;;;;;46.08;11.77;;;;;;;-148.24;100.00;61531.34;4967759;28;20174;-55
2022/11/26 08:49:27;;;;;;;55.33;13.45;;;;;;;-148.24;100.00;61531.34;4966653;28;20030;-54
2022/11/26 08:51:55;;;;;;;41.15;11.68;;;;;;;-148.24;100.00;61531.34;4966892;28;20129;-54
2022/11/26 08:54:21;;;;;;;42.03;11.20;;;;;;;-148.24;100.00;61531.34;4966878;28;20019;-53
2022/11/26 08:56:46;;;;;;;51.25;12.95;;;;;;;-148.24;100.00;61531.34;4968730;28;20729;-52
2022/11/26 08:59:11;;;;;;;45.70;11.98;;;;;;;-148.24;100.00;61531.34;4968444;28;20031;-56
2022/11/26 09:01:37;;;;;;;57.08;11.48;;;;;;;-148.24;100.00;61531.34;4965005;28;20049;-54
2022/11/26 09:04:03;;;;;;;49.63;12.63;;;;;;;-148.24;100.00;61531.34;4967739;28;20484;-52
2022/11/26 09:06:31;;;;;;;40.60;10.98;;;;;;;-148.24;100.00;61531.34;4966169;28;20094;-55
2022/11/26 09:09:16;;;;;;;46.05;11.48;;;;;;;-148.24;100.00;61531.34;4966862;28;20033;-56
2022/11/26 09:11:43;;;;;;;49.05;11.60;;;;;;;-148.24;100.00;61531.34;4965424;28;20039;-56
2022/11/26 09:14:09;;;;;;;48.53;11.25;;;;;;;-148.24;100.00;61531.34;4969328;28;20019;-54
2022/11/26 09:16:35;;;;;;;52.78;12.88;;;;;;;-148.24;100.00;61531.34;4965591;28;20117;-53
2022/11/26 09:19:03;;;;;;;48.60;11.35;;;;;;;-148.24;100.00;61531.34;4966659;28;20238;-53
2022/11/26 09:21:28;;;;;;;42.90;11.95;;;;;;;-148.24;100.00;61531.34;4967540;28;20119;-55
2022/11/26 09:23:54;;;;;;;44.72;11.88;;;;;;;-148.24;100.00;61531.34;4965673;28;20034;-55
2022/11/26 09:26:20;;;;;;;48.58;12.98;;;;;;;-148.24;100.00;61531.34;4965966;28;20035;-55
2022/11/26 09:28:49;;;;;;;45.90;11.65;;;;;;;-148.24;100.00;61531.34;4969540;28;20026;-54
2022/11/26 09:31:16;;;;;;;50.15;13.13;;;;;;;-148.24;100.00;61531.34;4966293;28;20041;-55
2022/11/26 09:33:41;;;;;;;42.58;11.73;;;;;;;-148.24;100.00;61531.34;4967798;28;20093;-55
2022/11/26 09:36:12;;;;;;;52.83;12.38;;;;;;;-148.24;100.00;61531.34;4965809;28;20039;-53
2022/11/26 09:38:38;;;;;;;40.37;11.87;;;;;;;-148.24;100.00;61531.34;4966914;28;20068;-53
2022/11/26 09:41:35;;;;;;;52.67;12.07;;;;;;;-148.24;100.00;61531.34;4967392;28;20209;-55
2022/11/26 09:44:03;;;;;;;46.60;12.68;;;;;;;-148.24;100.00;61531.34;4967860;28;20268;-53
2022/11/26 09:46:39;;;;;;;45.95;13.45;;;;;;;-148.24;100.00;61531.34;4966938;28;20050;-55
2022/11/26 09:49:05;;;;;;;192.85;31.00;;;;;;;-148.24;100.00;61531.34;4955487;28;20113;-53
2022/11/26 09:51:33;;;;;;;35.05;10.10;;;;;;;-148.24;100.00;61531.34;4966415;28;20045;-56
2022/11/26 09:54:01;;;;;;;47.85;11.98;;;;;;;-148.24;100.00;61531.34;4966736;28;20034;-54
2022/11/26 09:56:26;;;;;;;53.20;13.98;;;;;;;-148.24;100.00;61531.34;4966267;28;20776;-54
2022/11/26 09:58:56;;;;;;;54.67;13.82;;;;;;;-148.24;100.00;61531.34;4966796;28;20045;-55
2022/11/26 10:01:22;;;;;;;50.75;13.63;;;;;;;-148.24;100.00;61531.34;4965097;28;20599;-55
2022/11/26 10:03:49;;;;;;;47.53;13.70;;;;;;;-148.24;100.00;61531.34;4966987;28;20642;-54
2022/11/26 10:06:28;;;;;;;49.60;12.48;;;;;;;-148.24;100.00;61531.34;4965124;28;20035;-54
2022/11/26 10:09:00;;;;;;;39.08;11.32;;;;;;;-148.24;100.00;61531.34;4967086;28;20038;-54
2022/11/26 10:12:02;;;;;;;42.78;12.15;;;;;;;-148.24;100.00;61531.34;4965195;28;20061;-53
2022/11/26 10:14:38;;;;;;;59.50;13.52;;;;;;;-148.24;100.00;61531.34;4934777;28;20583;-56
2022/11/26 10:17:21;;;;;;;44.65;12.75;;;;;;;-148.24;100.00;61531.34;4965925;28;20039;-54
2022/11/26 10:20:11;;;;;;;54.90;13.48;;;;;;;-148.24;100.00;61531.34;4968607;28;20232;-54
2022/11/26 10:22:51;;;;;;;42.40;11.40;;;;;;;-148.24;100.00;61531.34;4972843;28;20077;-53
2022/11/26 10:25:20;;;;;;;37.40;11.13;;;;;;;-148.24;100.00;61531.34;4970861;28;20540;-53
2022/11/26 10:27:47;;;;;;;50.38;13.65;;;;;;;-148.24;100.00;61531.34;4959750;28;20031;-52
2022/11/26 10:30:18;;;;;;;54.13;12.75;;;;;;;-148.24;100.00;61531.34;4970553;28;20555;-55
2022/11/26 10:32:46;;;;;;;49.03;12.15;;;;;;;-148.24;100.00;61531.34;4973834;28;20042;-54
2022/11/26 10:35:34;;;;;;;58.65;12.23;;;;;;;-148.24;100.00;61531.34;4969024;28;20452;-51
2022/11/26 10:37:59;;;;;;;42.58;11.32;;;;;;;-148.24;100.00;61531.34;4970209;28;20035;-51
2022/11/26 10:40:29;;;;;;;46.40;13.05;;;;;;;-148.24;100.00;61531.34;4967470;28;20700;-52
2022/11/26 10:43:09;;;;;;;67.45;16.15;;;;;;;-148.24;100.00;61531.34;4970036;28;20068;-52
2022/11/26 10:45:52;;;;;;;63.00;15.30;;;;;;;-148.24;100.00;61531.34;4970723;28;20069;-53
2022/11/26 10:48:32;;;;;;;61.25;15.57;;;;;;;-148.24;100.00;61531.34;4973309;28;20084;-52
2022/11/26 10:51:02;;;;;;;52.42;14.05;;;;;;;-148.24;100.00;61531.34;4971369;28;20508;-52
2022/11/26 10:53:31;;;;;;;63.28;15.70;;;;;;;-148.24;100.00;61531.34;4969830;28;20035;-56
2022/11/26 10:55:59;;;;;;;74.22;17.83;;;;;;;-148.24;100.00;61531.34;4966196;28;20043;-53
2022/11/26 10:58:29;;;;;;;54.70;15.32;;;;;;;-148.24;100.00;61531.34;4966217;28;20030;-52